sensor_id;sensor_type;location;lat;lon;timestamp;P1;durP1;ratioP1;P2;durP2;ratioP2
27313;SDS011;14800;48.174;9.798;2023-07-28T00:01:25;4.00;;;2.65;;
27313;SDS011;14800;48.174;9.798;2023-07-28T00:03:51;3.30;;;2.47;;
27313;SDS011;14800;48.174;9.798;2023-07-28T00:06:16;3.00;;;2.67;;
27313;SDS011;14800;48.174;9.798;2023-07-28T00:08:42;3.47;;;2.97;;
27313;SDS011;14800;48.174;9.798;2023-07-28T00:11:11;2.80;;;2.60;;
27313;SDS011;14800;48.174;9.798;2023-07-28T00:13:38;2.97;;;2.60;;
27313;SDS011;14800;48.174;9.798;2023-07-28T00:16:04;2.90;;;2.70;;
27313;SDS011;14800;48.174;9.798;2023-07-28T00:18:30;2.83;;;2.63;;
27313;SDS011;14800;48.174;9.798;2023-07-28T00:20:56;3.45;;;2.58;;
27313;SDS011;14800;48.174;9.798;2023-07-28T00:23:21;4.30;;;2.88;;
27313;SDS011;14800;48.174;9.798;2023-07-28T00:25:47;2.60;;;2.40;;
27313;SDS011;14800;48.174;9.798;2023-07-28T00:28:13;3.30;;;3.00;;
27313;SDS011;14800;48.174;9.798;2023-07-28T00:30:39;3.15;;;2.88;;
27313;SDS011;14800;48.174;9.798;2023-07-28T00:33:04;2.95;;;2.63;;
27313;SDS011;14800;48.174;9.798;2023-07-28T00:35:30;3.28;;;2.90;;
27313;SDS011;14800;48.174;9.798;2023-07-28T00:37:56;2.92;;;2.70;;
27313;SDS011;14800;48.174;9.798;2023-07-28T00:40:22;3.25;;;3.00;;
27313;SDS011;14800;48.174;9.798;2023-07-28T00:42:47;3.10;;;2.80;;
27313;SDS011;14800;48.174;9.798;2023-07-28T00:45:13;2.90;;;2.70;;
27313;SDS011;14800;48.174;9.798;2023-07-28T00:47:39;3.10;;;2.88;;
27313;SDS011;14800;48.174;9.798;2023-07-28T00:50:06;3.28;;;2.97;;
27313;SDS011;14800;48.174;9.798;2023-07-28T00:52:33;3.53;;;2.90;;
27313;SDS011;14800;48.174;9.798;2023-07-28T00:54:59;3.45;;;3.05;;
27313;SDS011;14800;48.174;9.798;2023-07-28T00:57:25;3.55;;;3.25;;
27313;SDS011;14800;48.174;9.798;2023-07-28T00:59:51;3.40;;;3.10;;
27313;SDS011;14800;48.174;9.798;2023-07-28T01:02:18;3.20;;;2.83;;
27313;SDS011;14800;48.174;9.798;2023-07-28T01:04:44;3.38;;;3.05;;
27313;SDS011;14800;48.174;9.798;2023-07-28T01:07:11;4.15;;;2.92;;
27313;SDS011;14800;48.174;9.798;2023-07-28T01:10:02;3.13;;;2.75;;
27313;SDS011;14800;48.174;9.798;2023-07-28T01:12:33;3.15;;;2.88;;
27313;SDS011;14800;48.174;9.798;2023-07-28T01:14:59;4.97;;;2.95;;
27313;SDS011;14800;48.174;9.798;2023-07-28T01:17:24;3.45;;;2.75;;
27313;SDS011;14800;48.174;9.798;2023-07-28T01:19:51;2.88;;;2.45;;
27313;SDS011;14800;48.174;9.798;2023-07-28T01:24:51;4.07;;;2.83;;
27313;SDS011;14800;48.174;9.798;2023-07-28T01:27:24;3.05;;;2.80;;
27313;SDS011;14800;48.174;9.798;2023-07-28T01:29:51;3.70;;;2.78;;
27313;SDS011;14800;48.174;9.798;2023-07-28T01:32:17;2.72;;;2.53;;
27313;SDS011;14800;48.174;9.798;2023-07-28T01:34:42;5.18;;;2.83;;
27313;SDS011;14800;48.174;9.798;2023-07-28T01:37:08;4.95;;;2.90;;
27313;SDS011;14800;48.174;9.798;2023-07-28T01:39:33;3.35;;;3.05;;
27313;SDS011;14800;48.174;9.798;2023-07-28T01:41:59;3.50;;;2.90;;
27313;SDS011;14800;48.174;9.798;2023-07-28T01:44:24;2.95;;;2.65;;
27313;SDS011;14800;48.174;9.798;2023-07-28T01:46:50;3.50;;;2.60;;
27313;SDS011;14800;48.174;9.798;2023-07-28T01:49:16;2.97;;;2.78;;
27313;SDS011;14800;48.174;9.798;2023-07-28T01:51:41;2.60;;;2.30;;
27313;SDS011;14800;48.174;9.798;2023-07-28T01:54:07;2.60;;;2.40;;
27313;SDS011;14800;48.174;9.798;2023-07-28T01:56:32;4.05;;;2.80;;
27313;SDS011;14800;48.174;9.798;2023-07-28T01:58:58;2.75;;;2.55;;
27313;SDS011;14800;48.174;9.798;2023-07-28T02:01:23;3.78;;;2.85;;
27313;SDS011;14800;48.174;9.798;2023-07-28T02:03:49;4.03;;;2.40;;
27313;SDS011;14800;48.174;9.798;2023-07-28T02:06:14;3.17;;;2.60;;
27313;SDS011;14800;48.174;9.798;2023-07-28T02:08:40;3.45;;;2.58;;
27313;SDS011;14800;48.174;9.798;2023-07-28T02:11:06;3.45;;;2.78;;
27313;SDS011;14800;48.174;9.798;2023-07-28T02:13:31;3.95;;;3.00;;
27313;SDS011;14800;48.174;9.798;2023-07-28T02:15:57;3.20;;;2.88;;
27313;SDS011;14800;48.174;9.798;2023-07-28T02:18:22;3.90;;;3.08;;
27313;SDS011;14800;48.174;9.798;2023-07-28T02:20:48;4.72;;;2.80;;
27313;SDS011;14800;48.174;9.798;2023-07-28T02:23:14;3.30;;;3.00;;
27313;SDS011;14800;48.174;9.798;2023-07-28T02:25:40;4.45;;;3.10;;
27313;SDS011;14800;48.174;9.798;2023-07-28T02:28:06;3.45;;;3.15;;
27313;SDS011;14800;48.174;9.798;2023-07-28T02:30:32;3.53;;;3.15;;
27313;SDS011;14800;48.174;9.798;2023-07-28T02:32:57;3.95;;;3.58;;
27313;SDS011;14800;48.174;9.798;2023-07-28T02:35:23;3.50;;;3.20;;
27313;SDS011;14800;48.174;9.798;2023-07-28T02:37:48;3.95;;;3.20;;
27313;SDS011;14800;48.174;9.798;2023-07-28T02:40:14;3.15;;;2.85;;
27313;SDS011;14800;48.174;9.798;2023-07-28T02:42:40;3.80;;;3.42;;
27313;SDS011;14800;48.174;9.798;2023-07-28T02:45:06;3.10;;;2.80;;
27313;SDS011;14800;48.174;9.798;2023-07-28T02:47:31;3.58;;;3.28;;
27313;SDS011;14800;48.174;9.798;2023-07-28T02:49:57;3.40;;;3.10;;
27313;SDS011;14800;48.174;9.798;2023-07-28T02:52:23;5.00;;;3.30;;
27313;SDS011;14800;48.174;9.798;2023-07-28T02:54:48;3.63;;;3.33;;
27313;SDS011;14800;48.174;9.798;2023-07-28T02:57:15;3.95;;;3.10;;
27313;SDS011;14800;48.174;9.798;2023-07-28T02:59:40;3.58;;;3.28;;
27313;SDS011;14800;48.174;9.798;2023-07-28T03:02:06;3.58;;;3.28;;
27313;SDS011;14800;48.174;9.798;2023-07-28T03:04:31;4.93;;;3.22;;
27313;SDS011;14800;48.174;9.798;2023-07-28T03:06:57;3.70;;;3.30;;
27313;SDS011;14800;48.174;9.798;2023-07-28T03:09:23;3.42;;;2.92;;
27313;SDS011;14800;48.174;9.798;2023-07-28T03:11:48;3.67;;;3.38;;
27313;SDS011;14800;48.174;9.798;2023-07-28T03:14:14;2.92;;;2.70;;
27313;SDS011;14800;48.174;9.798;2023-07-28T03:16:40;4.00;;;3.40;;
27313;SDS011;14800;48.174;9.798;2023-07-28T03:19:06;3.15;;;2.88;;
27313;SDS011;14800;48.174;9.798;2023-07-28T03:21:32;3.47;;;3.00;;
27313;SDS011;14800;48.174;9.798;2023-07-28T03:23:58;3.33;;;2.90;;
27313;SDS011;14800;48.174;9.798;2023-07-28T03:26:23;3.40;;;3.10;;
27313;SDS011;14800;48.174;9.798;2023-07-28T03:28:49;3.60;;;3.30;;
27313;SDS011;14800;48.174;9.798;2023-07-28T03:31:15;3.25;;;2.95;;
27313;SDS011;14800;48.174;9.798;2023-07-28T03:33:40;3.25;;;2.78;;
27313;SDS011;14800;48.174;9.798;2023-07-28T03:36:06;4.85;;;3.30;;
27313;SDS011;14800;48.174;9.798;2023-07-28T03:38:33;4.63;;;3.30;;
27313;SDS011;14800;48.174;9.798;2023-07-28T03:40:58;5.28;;;4.78;;
27313;SDS011;14800;48.174;9.798;2023-07-28T03:43:24;7.57;;;6.40;;
27313;SDS011;14800;48.174;9.798;2023-07-28T03:45:50;7.57;;;5.68;;
27313;SDS011;14800;48.174;9.798;2023-07-28T03:48:15;7.82;;;6.38;;
27313;SDS011;14800;48.174;9.798;2023-07-28T03:50:41;6.97;;;4.78;;
27313;SDS011;14800;48.174;9.798;2023-07-28T03:53:07;6.43;;;4.85;;
27313;SDS011;14800;48.174;9.798;2023-07-28T03:55:32;6.32;;;5.05;;
27313;SDS011;14800;48.174;9.798;2023-07-28T03:57:58;5.72;;;4.75;;
27313;SDS011;14800;48.174;9.798;2023-07-28T04:00:23;7.13;;;4.93;;
27313;SDS011;14800;48.174;9.798;2023-07-28T04:02:49;4.40;;;4.00;;
27313;SDS011;14800;48.174;9.798;2023-07-28T04:05:15;3.83;;;3.50;;
27313;SDS011;14800;48.174;9.798;2023-07-28T04:07:40;3.53;;;3.22;;
27313;SDS011;14800;48.174;9.798;2023-07-28T04:10:06;6.35;;;3.67;;
27313;SDS011;14800;48.174;9.798;2023-07-28T04:12:32;4.45;;;3.78;;
27313;SDS011;14800;48.174;9.798;2023-07-28T04:14:57;4.80;;;4.00;;
27313;SDS011;14800;48.174;9.798;2023-07-28T04:17:23;3.65;;;3.30;;
27313;SDS011;14800;48.174;9.798;2023-07-28T04:19:49;4.15;;;3.75;;
27313;SDS011;14800;48.174;9.798;2023-07-28T04:22:14;4.57;;;3.38;;
27313;SDS011;14800;48.174;9.798;2023-07-28T04:24:46;4.75;;;3.28;;
27313;SDS011;14800;48.174;9.798;2023-07-28T04:27:12;6.40;;;5.10;;
27313;SDS011;14800;48.174;9.798;2023-07-28T04:29:37;4.68;;;4.03;;
27313;SDS011;14800;48.174;9.798;2023-07-28T04:32:03;4.00;;;3.60;;
27313;SDS011;14800;48.174;9.798;2023-07-28T04:34:29;6.00;;;4.00;;
27313;SDS011;14800;48.174;9.798;2023-07-28T04:36:54;4.72;;;3.53;;
27313;SDS011;14800;48.174;9.798;2023-07-28T04:39:20;4.20;;;3.78;;
27313;SDS011;14800;48.174;9.798;2023-07-28T04:41:45;3.75;;;3.40;;
27313;SDS011;14800;48.174;9.798;2023-07-28T04:44:11;4.50;;;3.55;;
27313;SDS011;14800;48.174;9.798;2023-07-28T04:46:36;3.75;;;3.45;;
27313;SDS011;14800;48.174;9.798;2023-07-28T04:49:02;4.22;;;3.20;;
27313;SDS011;14800;48.174;9.798;2023-07-28T04:51:28;3.42;;;3.13;;
27313;SDS011;14800;48.174;9.798;2023-07-28T04:53:53;3.78;;;3.35;;
27313;SDS011;14800;48.174;9.798;2023-07-28T04:56:19;6.82;;;3.50;;
27313;SDS011;14800;48.174;9.798;2023-07-28T04:58:44;6.22;;;3.50;;
27313;SDS011;14800;48.174;9.798;2023-07-28T05:01:10;3.72;;;3.42;;
27313;SDS011;14800;48.174;9.798;2023-07-28T05:03:37;3.25;;;2.92;;
27313;SDS011;14800;48.174;9.798;2023-07-28T05:06:03;3.85;;;2.95;;
27313;SDS011;14800;48.174;9.798;2023-07-28T05:08:32;3.08;;;2.75;;
27313;SDS011;14800;48.174;9.798;2023-07-28T05:10:58;3.15;;;2.85;;
27313;SDS011;14800;48.174;9.798;2023-07-28T05:13:23;3.00;;;2.80;;
27313;SDS011;14800;48.174;9.798;2023-07-28T05:15:49;3.20;;;2.90;;
27313;SDS011;14800;48.174;9.798;2023-07-28T05:18:14;3.10;;;2.90;;
27313;SDS011;14800;48.174;9.798;2023-07-28T05:20:40;4.70;;;3.20;;
27313;SDS011;14800;48.174;9.798;2023-07-28T05:23:05;3.25;;;2.88;;
27313;SDS011;14800;48.174;9.798;2023-07-28T05:25:31;3.20;;;2.90;;
27313;SDS011;14800;48.174;9.798;2023-07-28T05:27:57;4.60;;;3.17;;
27313;SDS011;14800;48.174;9.798;2023-07-28T05:30:22;3.65;;;2.95;;
27313;SDS011;14800;48.174;9.798;2023-07-28T05:32:48;3.17;;;2.88;;
27313;SDS011;14800;48.174;9.798;2023-07-28T05:35:14;3.03;;;2.83;;
27313;SDS011;14800;48.174;9.798;2023-07-28T05:37:40;2.83;;;2.63;;
27313;SDS011;14800;48.174;9.798;2023-07-28T05:40:06;5.13;;;2.97;;
27313;SDS011;14800;48.174;9.798;2023-07-28T05:42:32;5.03;;;2.72;;
27313;SDS011;14800;48.174;9.798;2023-07-28T05:44:58;2.92;;;2.72;;
27313;SDS011;14800;48.174;9.798;2023-07-28T05:47:24;3.40;;;3.10;;
27313;SDS011;14800;48.174;9.798;2023-07-28T05:49:50;3.35;;;3.03;;
27313;SDS011;14800;48.174;9.798;2023-07-28T05:52:18;6.18;;;2.67;;
27313;SDS011;14800;48.174;9.798;2023-07-28T05:54:44;3.78;;;2.95;;
27313;SDS011;14800;48.174;9.798;2023-07-28T05:57:10;6.47;;;2.70;;
27313;SDS011;14800;48.174;9.798;2023-07-28T05:59:35;6.72;;;2.55;;
27313;SDS011;14800;48.174;9.798;2023-07-28T06:02:01;3.10;;;2.80;;
27313;SDS011;14800;48.174;9.798;2023-07-28T06:04:27;2.65;;;2.45;;
27313;SDS011;14800;48.174;9.798;2023-07-28T06:06:52;2.90;;;2.53;;
27313;SDS011;14800;48.174;9.798;2023-07-28T06:09:18;4.28;;;2.58;;
27313;SDS011;14800;48.174;9.798;2023-07-28T06:11:44;4.85;;;2.40;;
27313;SDS011;14800;48.174;9.798;2023-07-28T06:14:09;2.50;;;2.30;;
27313;SDS011;14800;48.174;9.798;2023-07-28T06:16:35;2.80;;;2.60;;
27313;SDS011;14800;48.174;9.798;2023-07-28T06:19:01;2.90;;;2.42;;
27313;SDS011;14800;48.174;9.798;2023-07-28T06:21:26;3.03;;;2.42;;
27313;SDS011;14800;48.174;9.798;2023-07-28T06:23:52;3.13;;;2.50;;
27313;SDS011;14800;48.174;9.798;2023-07-28T06:26:17;4.07;;;2.47;;
27313;SDS011;14800;48.174;9.798;2023-07-28T06:28:43;2.88;;;2.47;;
27313;SDS011;14800;48.174;9.798;2023-07-28T06:31:09;3.22;;;2.40;;
27313;SDS011;14800;48.174;9.798;2023-07-28T06:33:35;3.70;;;2.40;;
27313;SDS011;14800;48.174;9.798;2023-07-28T06:36:01;2.58;;;2.22;;
27313;SDS011;14800;48.174;9.798;2023-07-28T06:38:27;2.63;;;2.42;;
27313;SDS011;14800;48.174;9.798;2023-07-28T06:40:53;6.55;;;2.30;;
27313;SDS011;14800;48.174;9.798;2023-07-28T06:43:19;3.83;;;2.40;;
27313;SDS011;14800;48.174;9.798;2023-07-28T06:45:44;2.88;;;2.40;;
27313;SDS011;14800;48.174;9.798;2023-07-28T06:48:10;4.30;;;2.50;;
27313;SDS011;14800;48.174;9.798;2023-07-28T06:50:36;3.30;;;2.40;;
27313;SDS011;14800;48.174;9.798;2023-07-28T06:53:01;2.95;;;2.55;;
27313;SDS011;14800;48.174;9.798;2023-07-28T06:55:27;3.58;;;2.40;;
27313;SDS011;14800;48.174;9.798;2023-07-28T06:57:53;3.38;;;2.50;;
27313;SDS011;14800;48.174;9.798;2023-07-28T07:00:18;3.42;;;2.47;;
27313;SDS011;14800;48.174;9.798;2023-07-28T07:02:44;6.63;;;2.53;;
27313;SDS011;14800;48.174;9.798;2023-07-28T07:05:10;2.58;;;2.38;;
27313;SDS011;14800;48.174;9.798;2023-07-28T07:07:36;2.60;;;2.28;;
27313;SDS011;14800;48.174;9.798;2023-07-28T07:10:02;3.10;;;2.13;;
27313;SDS011;14800;48.174;9.798;2023-07-28T07:12:28;2.60;;;2.40;;
27313;SDS011;14800;48.174;9.798;2023-07-28T07:14:53;2.20;;;2.08;;
27313;SDS011;14800;48.174;9.798;2023-07-28T07:17:19;2.50;;;2.15;;
27313;SDS011;14800;48.174;9.798;2023-07-28T07:19:45;3.05;;;2.10;;
27313;SDS011;14800;48.174;9.798;2023-07-28T07:22:10;2.33;;;2.00;;
27313;SDS011;14800;48.174;9.798;2023-07-28T07:24:36;2.70;;;2.50;;
27313;SDS011;14800;48.174;9.798;2023-07-28T07:27:01;3.45;;;2.40;;
27313;SDS011;14800;48.174;9.798;2023-07-28T07:29:27;2.28;;;2.08;;
27313;SDS011;14800;48.174;9.798;2023-07-28T07:31:53;2.65;;;2.30;;
27313;SDS011;14800;48.174;9.798;2023-07-28T07:34:21;3.50;;;2.10;;
27313;SDS011;14800;48.174;9.798;2023-07-28T07:36:47;3.03;;;2.13;;
27313;SDS011;14800;48.174;9.798;2023-07-28T07:39:13;3.17;;;2.50;;
27313;SDS011;14800;48.174;9.798;2023-07-28T07:41:38;2.78;;;2.25;;
27313;SDS011;14800;48.174;9.798;2023-07-28T07:44:04;2.50;;;2.22;;
27313;SDS011;14800;48.174;9.798;2023-07-28T07:46:30;3.83;;;2.70;;
27313;SDS011;14800;48.174;9.798;2023-07-28T07:48:55;4.38;;;2.38;;
27313;SDS011;14800;48.174;9.798;2023-07-28T07:51:21;4.95;;;2.35;;
27313;SDS011;14800;48.174;9.798;2023-07-28T07:53:46;2.30;;;2.10;;
27313;SDS011;14800;48.174;9.798;2023-07-28T07:56:12;3.25;;;2.10;;
27313;SDS011;14800;48.174;9.798;2023-07-28T07:58:38;2.40;;;2.20;;
27313;SDS011;14800;48.174;9.798;2023-07-28T08:01:03;3.35;;;2.35;;
27313;SDS011;14800;48.174;9.798;2023-07-28T08:03:29;3.53;;;2.33;;
27313;SDS011;14800;48.174;9.798;2023-07-28T08:05:55;3.42;;;1.98;;
27313;SDS011;14800;48.174;9.798;2023-07-28T08:08:21;2.35;;;2.00;;
27313;SDS011;14800;48.174;9.798;2023-07-28T08:10:46;1.90;;;1.80;;
27313;SDS011;14800;48.174;9.798;2023-07-28T08:13:12;3.00;;;1.73;;
27313;SDS011;14800;48.174;9.798;2023-07-28T08:15:38;2.00;;;1.80;;
27313;SDS011;14800;48.174;9.798;2023-07-28T08:18:04;2.17;;;1.90;;
27313;SDS011;14800;48.174;9.798;2023-07-28T08:20:29;3.53;;;1.80;;
27313;SDS011;14800;48.174;9.798;2023-07-28T08:22:55;1.98;;;1.80;;
27313;SDS011;14800;48.174;9.798;2023-07-28T08:25:21;1.90;;;1.73;;
27313;SDS011;14800;48.174;9.798;2023-07-28T08:27:48;2.33;;;1.60;;
27313;SDS011;14800;48.174;9.798;2023-07-28T08:30:14;1.92;;;1.60;;
27313;SDS011;14800;48.174;9.798;2023-07-28T08:32:40;4.07;;;1.90;;
27313;SDS011;14800;48.174;9.798;2023-07-28T08:35:06;8.43;;;2.33;;
27313;SDS011;14800;48.174;9.798;2023-07-28T08:37:33;2.03;;;1.77;;
27313;SDS011;14800;48.174;9.798;2023-07-28T08:39:58;2.50;;;1.90;;
27313;SDS011;14800;48.174;9.798;2023-07-28T08:42:24;2.83;;;1.67;;
27313;SDS011;14800;48.174;9.798;2023-07-28T08:44:50;3.75;;;1.85;;
27313;SDS011;14800;48.174;9.798;2023-07-28T08:47:17;2.15;;;1.70;;
27313;SDS011;14800;48.174;9.798;2023-07-28T08:49:44;2.47;;;1.65;;
27313;SDS011;14800;48.174;9.798;2023-07-28T08:52:09;2.10;;;1.90;;
27313;SDS011;14800;48.174;9.798;2023-07-28T08:54:35;3.78;;;1.58;;
27313;SDS011;14800;48.174;9.798;2023-07-28T08:57:00;1.92;;;1.80;;
27313;SDS011;14800;48.174;9.798;2023-07-28T08:59:28;5.32;;;1.90;;
27313;SDS011;14800;48.174;9.798;2023-07-28T09:01:55;1.75;;;1.63;;
27313;SDS011;14800;48.174;9.798;2023-07-28T09:04:23;1.98;;;1.88;;
27313;SDS011;14800;48.174;9.798;2023-07-28T09:06:49;2.00;;;1.90;;
27313;SDS011;14800;48.174;9.798;2023-07-28T09:09:16;2.15;;;1.80;;
27313;SDS011;14800;48.174;9.798;2023-07-28T09:14:11;2.03;;;1.77;;
27313;SDS011;14800;48.174;9.798;2023-07-28T09:16:38;2.75;;;1.50;;
27313;SDS011;14800;48.174;9.798;2023-07-28T09:19:04;1.77;;;1.67;;
27313;SDS011;14800;48.174;9.798;2023-07-28T09:21:31;2.33;;;1.92;;
27313;SDS011;14800;48.174;9.798;2023-07-28T09:24:02;7.13;;;1.88;;
27313;SDS011;14800;48.174;9.798;2023-07-28T09:26:42;1.92;;;1.83;;
27313;SDS011;14800;48.174;9.798;2023-07-28T09:29:13;1.70;;;1.60;;
27313;SDS011;14800;48.174;9.798;2023-07-28T09:31:40;2.20;;;2.00;;
27313;SDS011;14800;48.174;9.798;2023-07-28T09:34:07;2.30;;;2.10;;
27313;SDS011;14800;48.174;9.798;2023-07-28T09:36:34;1.65;;;1.55;;
27313;SDS011;14800;48.174;9.798;2023-07-28T09:39:00;2.50;;;1.73;;
27313;SDS011;14800;48.174;9.798;2023-07-28T09:41:28;2.05;;;1.75;;
27313;SDS011;14800;48.174;9.798;2023-07-28T09:43:55;1.88;;;1.50;;
27313;SDS011;14800;48.174;9.798;2023-07-28T09:46:21;1.98;;;1.88;;
27313;SDS011;14800;48.174;9.798;2023-07-28T09:48:49;3.10;;;1.88;;
27313;SDS011;14800;48.174;9.798;2023-07-28T09:51:20;2.33;;;1.60;;
27313;SDS011;14800;48.174;9.798;2023-07-28T09:53:53;2.85;;;1.80;;
27313;SDS011;14800;48.174;9.798;2023-07-28T09:56:25;1.70;;;1.48;;
27313;SDS011;14800;48.174;9.798;2023-07-28T09:58:54;2.13;;;1.90;;
27313;SDS011;14800;48.174;9.798;2023-07-28T10:01:22;2.72;;;1.83;;
27313;SDS011;14800;48.174;9.798;2023-07-28T10:03:48;1.90;;;1.80;;
27313;SDS011;14800;48.174;9.798;2023-07-28T10:06:14;1.60;;;1.50;;
27313;SDS011;14800;48.174;9.798;2023-07-28T10:08:44;1.75;;;1.65;;
27313;SDS011;14800;48.174;9.798;2023-07-28T10:11:14;1.80;;;1.70;;
27313;SDS011;14800;48.174;9.798;2023-07-28T10:13:41;1.83;;;1.73;;
27313;SDS011;14800;48.174;9.798;2023-07-28T10:16:09;6.10;;;1.92;;
27313;SDS011;14800;48.174;9.798;2023-07-28T10:18:35;3.20;;;1.85;;
27313;SDS011;14800;48.174;9.798;2023-07-28T10:21:19;1.80;;;1.70;;
27313;SDS011;14800;48.174;9.798;2023-07-28T10:23:45;1.70;;;1.60;;
27313;SDS011;14800;48.174;9.798;2023-07-28T10:26:30;1.75;;;1.65;;
27313;SDS011;14800;48.174;9.798;2023-07-28T10:29:09;1.83;;;1.73;;
27313;SDS011;14800;48.174;9.798;2023-07-28T10:31:36;1.80;;;1.70;;
27313;SDS011;14800;48.174;9.798;2023-07-28T10:34:01;1.67;;;1.58;;
27313;SDS011;14800;48.174;9.798;2023-07-28T10:41:34;2.88;;;1.70;;
27313;SDS011;14800;48.174;9.798;2023-07-28T10:44:00;3.35;;;1.73;;
27313;SDS011;14800;48.174;9.798;2023-07-28T10:46:27;1.70;;;1.60;;
27313;SDS011;14800;48.174;9.798;2023-07-28T10:48:53;3.92;;;1.45;;
27313;SDS011;14800;48.174;9.798;2023-07-28T10:51:22;2.42;;;1.98;;
27313;SDS011;14800;48.174;9.798;2023-07-28T10:53:50;2.22;;;1.92;;
27313;SDS011;14800;48.174;9.798;2023-07-28T10:56:16;2.22;;;2.00;;
27313;SDS011;14800;48.174;9.798;2023-07-28T10:58:43;2.42;;;1.90;;
27313;SDS011;14800;48.174;9.798;2023-07-28T11:01:09;1.98;;;1.88;;
27313;SDS011;14800;48.174;9.798;2023-07-28T11:03:35;1.90;;;1.80;;
27313;SDS011;14800;48.174;9.798;2023-07-28T11:06:01;3.38;;;1.90;;
27313;SDS011;14800;48.174;9.798;2023-07-28T11:08:28;2.03;;;1.83;;
27313;SDS011;14800;48.174;9.798;2023-07-28T11:10:54;2.28;;;2.08;;
27313;SDS011;14800;48.174;9.798;2023-07-28T11:13:20;2.10;;;1.90;;
27313;SDS011;14800;48.174;9.798;2023-07-28T11:15:47;1.73;;;1.63;;
27313;SDS011;14800;48.174;9.798;2023-07-28T11:18:15;2.63;;;2.08;;
27313;SDS011;14800;48.174;9.798;2023-07-28T11:20:41;2.55;;;2.08;;
27313;SDS011;14800;48.174;9.798;2023-07-28T11:23:06;3.05;;;1.70;;
27313;SDS011;14800;48.174;9.798;2023-07-28T11:25:33;1.70;;;1.60;;
27313;SDS011;14800;48.174;9.798;2023-07-28T11:28:03;1.75;;;1.65;;
27313;SDS011;14800;48.174;9.798;2023-07-28T11:30:32;1.88;;;1.77;;
27313;SDS011;14800;48.174;9.798;2023-07-28T11:33:02;1.90;;;1.60;;
27313;SDS011;14800;48.174;9.798;2023-07-28T11:35:28;1.95;;;1.85;;
27313;SDS011;14800;48.174;9.798;2023-07-28T11:37:54;1.65;;;1.55;;
27313;SDS011;14800;48.174;9.798;2023-07-28T11:40:21;2.08;;;1.58;;
27313;SDS011;14800;48.174;9.798;2023-07-28T11:42:48;2.42;;;1.60;;
27313;SDS011;14800;48.174;9.798;2023-07-28T11:45:15;2.88;;;2.10;;
27313;SDS011;14800;48.174;9.798;2023-07-28T11:50:29;1.77;;;1.67;;
27313;SDS011;14800;48.174;9.798;2023-07-28T11:53:05;1.95;;;1.75;;
27313;SDS011;14800;48.174;9.798;2023-07-28T11:55:32;1.77;;;1.58;;
27313;SDS011;14800;48.174;9.798;2023-07-28T11:57:59;2.00;;;1.70;;
27313;SDS011;14800;48.174;9.798;2023-07-28T12:00:30;2.00;;;1.80;;
27313;SDS011;14800;48.174;9.798;2023-07-28T12:05:41;1.80;;;1.70;;
27313;SDS011;14800;48.174;9.798;2023-07-28T12:08:38;1.85;;;1.75;;
27313;SDS011;14800;48.174;9.798;2023-07-28T12:11:04;3.28;;;1.90;;
27313;SDS011;14800;48.174;9.798;2023-07-28T12:13:31;1.90;;;1.80;;
27313;SDS011;14800;48.174;9.798;2023-07-28T12:15:57;1.80;;;1.70;;
27313;SDS011;14800;48.174;9.798;2023-07-28T12:18:22;1.70;;;1.60;;
27313;SDS011;14800;48.174;9.798;2023-07-28T12:20:55;4.07;;;1.67;;
27313;SDS011;14800;48.174;9.798;2023-07-28T12:23:21;1.70;;;1.60;;
27313;SDS011;14800;48.174;9.798;2023-07-28T12:25:48;2.97;;;1.73;;
27313;SDS011;14800;48.174;9.798;2023-07-28T12:28:15;1.70;;;1.60;;
27313;SDS011;14800;48.174;9.798;2023-07-28T12:30:41;1.65;;;1.52;;
27313;SDS011;14800;48.174;9.798;2023-07-28T12:33:06;1.95;;;1.77;;
27313;SDS011;14800;48.174;9.798;2023-07-28T12:35:33;3.33;;;1.60;;
27313;SDS011;14800;48.174;9.798;2023-07-28T12:38:00;2.45;;;1.85;;
27313;SDS011;14800;48.174;9.798;2023-07-28T12:40:29;2.60;;;1.52;;
27313;SDS011;14800;48.174;9.798;2023-07-28T12:42:56;1.63;;;1.52;;
27313;SDS011;14800;48.174;9.798;2023-07-28T12:45:22;1.80;;;1.70;;
27313;SDS011;14800;48.174;9.798;2023-07-28T12:47:50;2.65;;;1.40;;
27313;SDS011;14800;48.174;9.798;2023-07-28T12:50:18;1.50;;;1.40;;
27313;SDS011;14800;48.174;9.798;2023-07-28T12:52:43;2.80;;;1.73;;
27313;SDS011;14800;48.174;9.798;2023-07-28T12:55:09;1.88;;;1.45;;
27313;SDS011;14800;48.174;9.798;2023-07-28T12:57:35;3.05;;;1.40;;
27313;SDS011;14800;48.174;9.798;2023-07-28T13:00:00;3.35;;;1.30;;
27313;SDS011;14800;48.174;9.798;2023-07-28T13:02:26;3.33;;;1.63;;
27313;SDS011;14800;48.174;9.798;2023-07-28T13:04:51;2.17;;;1.38;;
27313;SDS011;14800;48.174;9.798;2023-07-28T13:07:17;2.10;;;1.90;;
27313;SDS011;14800;48.174;9.798;2023-07-28T13:09:43;3.10;;;1.63;;
27313;SDS011;14800;48.174;9.798;2023-07-28T13:12:09;1.70;;;1.60;;
27313;SDS011;14800;48.174;9.798;2023-07-28T13:14:35;1.88;;;1.77;;
27313;SDS011;14800;48.174;9.798;2023-07-28T13:17:00;2.28;;;1.55;;
27313;SDS011;14800;48.174;9.798;2023-07-28T13:19:26;2.10;;;1.52;;
27313;SDS011;14800;48.174;9.798;2023-07-28T13:21:51;3.10;;;1.80;;
27313;SDS011;14800;48.174;9.798;2023-07-28T13:24:17;2.20;;;1.70;;
27313;SDS011;14800;48.174;9.798;2023-07-28T13:26:43;2.00;;;1.80;;
27313;SDS011;14800;48.174;9.798;2023-07-28T13:29:08;1.77;;;1.63;;
27313;SDS011;14800;48.174;9.798;2023-07-28T13:31:34;2.45;;;1.80;;
27313;SDS011;14800;48.174;9.798;2023-07-28T13:34:00;2.00;;;1.60;;
27313;SDS011;14800;48.174;9.798;2023-07-28T13:36:25;2.08;;;1.70;;
27313;SDS011;14800;48.174;9.798;2023-07-28T13:38:51;1.95;;;1.70;;
27313;SDS011;14800;48.174;9.798;2023-07-28T13:41:17;2.45;;;1.70;;
27313;SDS011;14800;48.174;9.798;2023-07-28T13:43:42;1.70;;;1.60;;
27313;SDS011;14800;48.174;9.798;2023-07-28T13:46:08;1.88;;;1.60;;
27313;SDS011;14800;48.174;9.798;2023-07-28T13:48:33;2.67;;;1.85;;
27313;SDS011;14800;48.174;9.798;2023-07-28T13:51:01;1.80;;;1.70;;
27313;SDS011;14800;48.174;9.798;2023-07-28T13:53:27;1.83;;;1.73;;
27313;SDS011;14800;48.174;9.798;2023-07-28T13:55:53;2.28;;;1.80;;
27313;SDS011;14800;48.174;9.798;2023-07-28T13:58:19;2.10;;;1.80;;
27313;SDS011;14800;48.174;9.798;2023-07-28T14:00:45;2.20;;;1.55;;
27313;SDS011;14800;48.174;9.798;2023-07-28T14:03:11;1.70;;;1.60;;
27313;SDS011;14800;48.174;9.798;2023-07-28T14:05:37;2.13;;;1.60;;
27313;SDS011;14800;48.174;9.798;2023-07-28T14:08:03;2.00;;;1.55;;
27313;SDS011;14800;48.174;9.798;2023-07-28T14:10:29;2.55;;;1.60;;
27313;SDS011;14800;48.174;9.798;2023-07-28T14:12:54;2.22;;;1.58;;
27313;SDS011;14800;48.174;9.798;2023-07-28T14:15:20;2.10;;;1.90;;
27313;SDS011;14800;48.174;9.798;2023-07-28T14:17:45;1.67;;;1.58;;
27313;SDS011;14800;48.174;9.798;2023-07-28T14:20:11;3.33;;;1.60;;
27313;SDS011;14800;48.174;9.798;2023-07-28T14:22:37;2.03;;;1.83;;
27313;SDS011;14800;48.174;9.798;2023-07-28T14:25:02;2.47;;;1.92;;
27313;SDS011;14800;48.174;9.798;2023-07-28T14:27:28;3.15;;;1.60;;
27313;SDS011;14800;48.174;9.798;2023-07-28T14:29:54;1.90;;;1.67;;
27313;SDS011;14800;48.174;9.798;2023-07-28T14:32:19;1.90;;;1.80;;
27313;SDS011;14800;48.174;9.798;2023-07-28T14:34:45;2.10;;;1.90;;
27313;SDS011;14800;48.174;9.798;2023-07-28T14:37:10;1.80;;;1.70;;
27313;SDS011;14800;48.174;9.798;2023-07-28T14:39:36;1.88;;;1.73;;
27313;SDS011;14800;48.174;9.798;2023-07-28T14:42:02;1.85;;;1.75;;
27313;SDS011;14800;48.174;9.798;2023-07-28T14:44:28;1.73;;;1.60;;
27313;SDS011;14800;48.174;9.798;2023-07-28T14:46:54;1.98;;;1.77;;
27313;SDS011;14800;48.174;9.798;2023-07-28T14:49:19;2.50;;;1.50;;
27313;SDS011;14800;48.174;9.798;2023-07-28T14:51:45;1.67;;;1.48;;
27313;SDS011;14800;48.174;9.798;2023-07-28T14:54:11;2.63;;;1.55;;
27313;SDS011;14800;48.174;9.798;2023-07-28T14:56:37;1.67;;;1.58;;
27313;SDS011;14800;48.174;9.798;2023-07-28T14:59:02;1.98;;;1.50;;